Time;durP1;ratioP1;P1;durP2;ratioP2;P2;SDS_P1;SDS_P2;PMS_P1;PMS_P2;Temp;Humidity;BMP_temperature;BMP_pressure;BME280_temperature;BME280_humidity;BME280_pressure;Samples;Min_cycle;Max_cycle;Signal;HPM_P1;HPM_P2
2022/08/03 00:01:41;;;;;;;10.15;2.65;;;;;;;25.04;44.95;100549.84;5106584;27;20201;-58
2022/08/03 00:04:11;;;;;;;9.23;2.20;;;;;;;24.97;44.99;100543.75;5103375;27;20573;-59
2022/08/03 00:06:38;;;;;;;5.82;2.40;;;;;;;25.00;44.55;100543.25;5093749;27;20206;-58
2022/08/03 00:09:07;;;;;;;9.05;2.28;;;;;;;24.97;44.71;100546.47;5104305;27;20206;-57
2022/08/03 00:11:35;;;;;;;5.55;2.03;;;;;;;24.93;44.82;100542.56;5101227;27;20234;-57
2022/08/03 00:14:04;;;;;;;9.20;2.20;;;;;;;24.91;44.96;100546.53;5101179;27;21526;-57
2022/08/03 00:16:32;;;;;;;8.52;1.80;;;;;;;24.87;44.77;100540.78;5102458;27;20229;-57
2022/08/03 00:19:01;;;;;;;7.40;1.90;;;;;;;24.91;44.63;100551.97;5096261;27;20236;-58
2022/08/03 00:21:29;;;;;;;8.48;2.50;;;;;;;24.90;44.19;100550.31;5099494;27;20216;-59
2022/08/03 00:23:57;;;;;;;5.45;2.20;;;;;;;24.85;44.27;100548.34;5088555;27;20651;-59
2022/08/03 00:26:24;;;;;;;4.93;1.85;;;;;;;24.78;44.29;100546.81;5100086;27;20289;-58
2022/08/03 00:28:52;;;;;;;4.75;2.05;;;;;;;24.75;44.55;100548.94;5098963;27;20202;-56
2022/08/03 00:31:21;;;;;;;5.10;2.00;;;;;;;24.71;44.84;100547.78;5101107;27;20211;-58
2022/08/03 00:34:09;;;;;;;7.18;2.38;;;;;;;24.68;45.08;100547.44;5104347;27;20225;-58
2022/08/03 00:36:39;;;;;;;4.78;2.35;;;;;;;24.66;44.80;100552.25;5103878;27;20214;-58
2022/08/03 00:39:06;;;;;;;6.47;2.72;;;;;;;24.68;44.92;100544.72;5103442;27;20231;-59
2022/08/03 00:41:34;;;;;;;5.13;1.95;;;;;;;24.64;44.82;100540.81;5099345;27;20206;-59
2022/08/03 00:44:02;;;;;;;8.88;1.90;;;;;;;24.65;44.64;100542.47;5098708;27;20686;-59
2022/08/03 00:46:31;;;;;;;6.40;1.88;;;;;;;24.65;44.51;100545.19;5110098;27;20716;-58
2022/08/03 00:48:58;;;;;;;3.25;1.70;;;;;;;24.62;44.69;100540.25;5118125;27;20210;-59
2022/08/03 00:51:27;;;;;;;3.90;2.15;;;;;;;24.63;44.62;100544.59;5124144;27;20715;-59
2022/08/03 00:53:55;;;;;;;5.60;2.47;;;;;;;24.55;44.45;100537.66;5119621;27;20215;-58
2022/08/03 00:56:23;;;;;;;5.38;2.55;;;;;;;24.51;44.40;100536.50;5119590;27;20213;-58
2022/08/03 00:58:52;;;;;;;6.63;2.25;;;;;;;24.40;44.41;100534.63;5117356;27;20260;-56
2022/08/03 01:01:20;;;;;;;6.70;2.10;;;;;;;24.37;44.77;100530.50;5125865;27;20205;-58
2022/08/03 01:03:49;;;;;;;5.50;2.50;;;;;;;24.37;44.62;100535.09;5127596;27;20236;-58
2022/08/03 01:06:19;;;;;;;5.55;2.22;;;;;;;24.40;44.66;100534.63;5123053;27;20221;-58
2022/08/03 01:08:52;;;;;;;7.05;2.20;;;;;;;24.41;44.74;100530.03;5121693;27;20202;-58
2022/08/03 01:11:32;;;;;;;4.10;2.13;;;;;;;24.40;44.57;100534.63;5125125;27;20272;-58
2022/08/03 01:14:06;;;;;;;6.30;2.42;;;;;;;24.40;44.65;100522.94;5120773;27;20569;-58
2022/08/03 01:16:56;;;;;;;4.15;2.17;;;;;;;24.40;44.83;100525.66;5133335;27;20266;-57
2022/08/03 01:19:48;;;;;;;4.03;2.08;;;;;;;24.41;45.93;100530.03;5143026;27;20209;-58
2022/08/03 01:23:05;;;;;;;9.73;2.75;;;;;;;24.35;46.42;100523.69;5145400;27;20200;-56
2022/08/03 01:25:47;;;;;;;4.28;1.75;;;;;;;24.26;46.56;100523.22;5096496;28;20214;-57
2022/08/03 01:28:39;;;;;;;5.57;2.13;;;;;;;24.18;46.87;100528.13;5141854;27;20679;-57
2022/08/03 01:31:11;;;;;;;11.50;2.30;;;;;;;24.13;46.88;100520.69;5146766;27;20257;-58
2022/08/03 01:33:43;;;;;;;5.82;2.17;;;;;;;24.11;47.20;100524.69;5139835;27;21553;-56
2022/08/03 01:36:14;;;;;;;3.63;2.10;;;;;;;24.12;46.77;100520.94;5142094;27;20295;-55
2022/08/03 01:38:45;;;;;;;4.28;1.90;;;;;;;24.09;46.79;100521.41;5140362;27;20208;-56
2022/08/03 01:41:19;;;;;;;6.13;2.17;;;;;;;24.02;47.14;100519.63;5141991;27;20225;-58
2022/08/03 01:43:50;;;;;;;4.22;1.95;;;;;;;23.95;47.15;100515.38;5138430;27;20961;-58
2022/08/03 01:46:40;;;;;;;3.22;1.73;;;;;;;23.90;46.97;100513.41;5137854;27;20813;-58
2022/08/03 01:49:17;;;;;;;7.30;2.70;;;;;;;23.86;46.97;100514.09;5145684;27;20227;-57
2022/08/03 01:51:47;;;;;;;3.30;1.88;;;;;;;23.87;47.37;100513.03;5138492;27;20239;-56
2022/08/03 01:54:32;;;;;;;5.65;2.22;;;;;;;23.91;47.30;100508.81;5142627;27;20208;-58
2022/08/03 01:57:01;;;;;;;4.60;2.17;;;;;;;23.92;46.84;100507.75;5139800;27;20217;-57
2022/08/03 01:59:30;;;;;;;5.22;2.00;;;;;;;23.87;47.10;100513.03;5139678;27;20220;-59
2022/08/03 02:02:00;;;;;;;2.67;1.98;;;;;;;23.85;46.96;100510.56;5142112;27;20215;-58
2022/08/03 02:04:50;;;;;;;7.78;2.50;;;;;;;23.76;46.61;100517.38;5139508;27;20208;-58
2022/08/03 02:07:19;;;;;;;5.93;2.35;;;;;;;23.78;46.76;100509.00;5142198;27;20219;-57
2022/08/03 02:09:50;;;;;;;8.47;2.03;;;;;;;23.80;46.73;100513.16;5142144;27;20205;-58
2022/08/03 02:12:19;;;;;;;3.63;1.87;;;;;;;23.74;46.51;100507.84;5144541;27;20238;-58
2022/08/03 02:14:50;;;;;;;8.53;2.00;;;;;;;23.63;46.91;100512.19;5143096;27;20205;-58
2022/08/03 02:17:20;;;;;;;6.70;2.07;;;;;;;23.65;47.15;100509.25;5139616;27;20204;-58
2022/08/03 02:20:08;;;;;;;6.97;2.20;;;;;;;23.62;47.50;100507.81;5142415;27;20209;-58
2022/08/03 02:22:40;;;;;;;3.47;1.80;;;;;;;23.65;47.29;100514.66;5141171;27;20207;-57
2022/08/03 02:25:09;;;;;;;5.07;2.13;;;;;;;23.70;47.30;100514.78;5140109;27;20205;-58
2022/08/03 02:27:40;;;;;;;3.63;2.00;;;;;;;23.72;47.38;100512.66;5140203;27;20209;-58
2022/08/03 02:30:12;;;;;;;4.17;1.77;;;;;;;23.66;47.32;100511.69;5141334;27;20304;-57
2022/08/03 02:32:43;;;;;;;5.90;2.20;;;;;;;23.65;47.50;100504.66;5142990;27;20590;-58
2022/08/03 02:35:13;;;;;;;4.97;2.07;;;;;;;23.63;47.50;100504.88;5145002;27;20214;-57
2022/08/03 02:37:44;;;;;;;4.37;2.30;;;;;;;23.68;47.34;100514.19;5144502;27;20209;-58
2022/08/03 02:40:19;;;;;;;3.97;1.70;;;;;;;23.63;47.58;100513.00;5142708;27;20211;-58
2022/08/03 02:42:51;;;;;;;5.93;2.37;;;;;;;23.64;47.51;100508.41;5141044;27;20637;-58
2022/08/03 02:45:20;;;;;;;4.63;2.20;;;;;;;23.66;47.21;100509.00;5138125;27;20201;-57
2022/08/03 02:47:55;;;;;;;4.37;2.20;;;;;;;23.61;47.30;100498.88;5139969;27;20676;-58
2022/08/03 02:50:24;;;;;;;5.43;2.10;;;;;;;23.57;47.43;100500.38;5143487;27;20879;-58
2022/08/03 02:52:53;;;;;;;5.83;1.97;;;;;;;23.54;47.53;100498.16;5144641;27;20204;-58
2022/08/03 02:55:22;;;;;;;3.70;2.10;;;;;;;23.54;47.51;100497.34;5147583;27;20583;-59
2022/08/03 02:57:51;;;;;;;4.27;2.10;;;;;;;23.46;47.91;100495.75;5142416;27;20703;-58
2022/08/03 03:00:19;;;;;;;3.17;2.23;;;;;;;23.45;47.97;100499.53;5143749;27;20221;-59
2022/08/03 03:02:58;;;;;;;6.13;2.10;;;;;;;23.43;48.21;100496.22;5145121;27;20196;-55
2022/08/03 03:05:28;;;;;;;4.30;2.10;;;;;;;23.42;48.17;100499.16;5146553;27;20635;-58
2022/08/03 03:08:18;;;;;;;4.05;1.73;;;;;;;23.43;48.06;100488.09;5148629;27;20224;-58
2022/08/03 03:10:54;;;;;;;6.17;2.20;;;;;;;23.40;48.54;100491.25;5145294;27;20209;-56
2022/08/03 03:13:23;;;;;;;5.20;1.97;;;;;;;23.34;48.78;100497.59;5148165;27;20208;-58
2022/08/03 03:15:52;;;;;;;4.47;2.00;;;;;;;23.27;48.80;100502.28;5144637;27;20219;-57
2022/08/03 03:18:21;;;;;;;7.17;2.27;;;;;;;23.27;49.14;100500.41;5147783;27;20217;-57
2022/08/03 03:20:51;;;;;;;3.53;1.90;;;;;;;23.27;49.12;100505.00;5144910;27;20225;-55
2022/08/03 03:23:21;;;;;;;4.70;2.30;;;;;;;23.24;49.20;100508.16;5143961;27;20305;-56
2022/08/03 03:25:49;;;;;;;4.33;2.40;;;;;;;23.21;49.26;100503.22;5144559;27;20215;-57
2022/08/03 03:28:17;;;;;;;6.60;2.37;;;;;;;23.25;49.01;100498.97;5146242;27;20208;-58
2022/08/03 03:30:45;;;;;;;3.33;2.10;;;;;;;23.21;48.79;100501.34;5147686;27;20329;-58
2022/08/03 03:33:21;;;;;;;5.73;2.30;;;;;;;23.17;49.03;100502.84;5147987;27;20211;-59
2022/08/03 03:35:50;;;;;;;5.00;2.30;;;;;;;23.13;49.01;100503.53;5146514;27;20197;-59
2022/08/03 03:38:18;;;;;;;6.03;2.03;;;;;;;23.09;49.04;100503.16;5145858;27;20201;-59
2022/08/03 03:40:46;;;;;;;3.63;1.97;;;;;;;23.12;49.41;100497.31;5145952;27;20232;-53
2022/08/03 03:43:14;;;;;;;7.63;2.33;;;;;;;23.16;49.21;100508.47;5141176;27;20205;-59
2022/08/03 03:45:43;;;;;;;5.73;2.40;;;;;;;23.23;49.34;100512.72;5144649;27;20647;-59
2022/08/03 03:48:10;;;;;;;15.10;2.97;;;;;;;23.28;48.84;100509.34;5143551;27;20205;-59
2022/08/03 03:50:40;;;;;;;6.17;2.67;;;;;;;23.26;48.82;100504.16;5144414;27;20200;-59
2022/08/03 03:53:10;;;;;;;6.10;2.20;;;;;;;23.21;49.19;100508.63;5143942;27;20204;-62
2022/08/03 03:55:38;;;;;;;4.77;2.00;;;;;;;23.22;49.14;100516.50;5139938;27;20206;-58
2022/08/03 03:58:26;;;;;;;4.10;2.17;;;;;;;23.10;49.56;100512.09;5151589;27;20287;-60
2022/08/03 04:00:54;;;;;;;6.07;2.60;;;;;;;23.04;49.62;100513.03;5152771;27;20444;-60
2022/08/03 04:03:22;;;;;;;5.37;2.47;;;;;;;23.05;49.22;100528.16;5151603;27;20207;-60
2022/08/03 04:11:26;;;;;;;4.73;2.07;;;;;;;23.05;49.00;100520.06;5151651;27;20662;-60
2022/08/03 04:14:03;;;;;;;7.90;2.40;;;;;;;23.02;48.66;100520.53;5151980;27;20204;-59
2022/08/03 04:16:34;;;;;;;5.80;2.10;;;;;;;22.95;49.20;100517.94;5153247;27;20204;-60
2022/08/03 04:19:10;;;;;;;4.07;2.33;;;;;;;22.93;49.13;100519.19;5151287;27;20265;-60
2022/08/03 04:21:43;;;;;;;6.47;2.50;;;;;;;22.93;49.52;100517.31;5144859;27;20207;-58
2022/08/03 04:24:13;;;;;;;9.33;2.60;;;;;;;22.93;49.41;100521.91;5155387;27;20235;-60
2022/08/03 04:26:43;;;;;;;6.67;2.80;;;;;;;22.94;49.42;100518.16;5149198;27;20667;-59
2022/08/03 04:29:12;;;;;;;6.40;2.53;;;;;;;22.92;49.38;100518.38;5152601;27;20206;-60
2022/08/03 04:31:43;;;;;;;5.57;2.10;;;;;;;22.88;49.79;100526.09;5151741;27;20335;-60
2022/08/03 04:34:10;;;;;;;6.43;2.23;;;;;;;22.88;49.79;100523.41;5155085;27;20704;-60
2022/08/03 04:36:47;;;;;;;4.47;2.30;;;;;;;22.90;49.84;100523.19;5150595;27;20211;-60
2022/08/03 04:39:19;;;;;;;5.07;3.00;;;;;;;22.90;49.91;100525.88;5151072;27;20208;-60
2022/08/03 04:41:49;;;;;;;6.43;2.97;;;;;;;22.92;50.37;100531.06;5153303;27;20301;-59
2022/08/03 04:44:39;;;;;;;4.80;2.90;;;;;;;22.89;50.11;100533.16;5151720;27;20196;-60
2022/08/03 04:47:07;;;;;;;5.80;2.43;;;;;;;22.91;50.17;100534.81;5148514;27;20228;-60
2022/08/03 04:49:37;;;;;;;6.20;2.57;;;;;;;22.96;50.21;100529.53;5151679;27;20211;-60
2022/08/03 04:52:08;;;;;;;4.93;2.43;;;;;;;22.92;50.27;100531.06;5151022;27;20205;-60
2022/08/03 04:54:40;;;;;;;5.90;2.60;;;;;;;22.93;50.32;100532.72;5149782;27;20231;-61
2022/08/03 04:57:08;;;;;;;5.97;2.83;;;;;;;23.02;50.16;100520.53;5150513;27;20739;-59
2022/08/03 04:59:36;;;;;;;4.40;2.23;;;;;;;23.06;49.93;100524.41;5152095;27;20236;-59
2022/08/03 05:02:07;;;;;;;4.10;2.40;;;;;;;23.08;50.18;100530.44;5148852;27;20285;-60
2022/08/03 05:04:47;;;;;;;5.23;2.33;;;;;;;23.14;49.77;100524.94;5150005;27;20201;-60
2022/08/03 05:07:19;;;;;;;5.10;2.40;;;;;;;23.18;49.87;100533.41;5149998;27;20247;-60
2022/08/03 05:09:55;;;;;;;3.47;2.40;;;;;;;23.19;50.00;100537.78;5146084;27;20200;-60
2022/08/03 05:12:29;;;;;;;6.73;3.07;;;;;;;23.15;50.38;100532.00;5151278;27;20231;-59
2022/08/03 05:15:00;;;;;;;8.23;2.90;;;;;;;23.22;50.09;100540.00;5151749;27;20645;-59
2022/08/03 05:17:28;;;;;;;6.73;2.43;;;;;;;23.23;50.21;100536.25;5151789;27;20208;-60
2022/08/03 05:19:56;;;;;;;5.00;2.30;;;;;;;23.25;49.93;100534.97;5151124;27;20228;-61
2022/08/03 05:22:25;;;;;;;5.13;2.03;;;;;;;23.30;50.18;100530.78;5150760;27;20582;-60
2022/08/03 05:24:53;;;;;;;7.97;2.73;;;;;;;23.34;49.94;100540.88;5150925;27;20232;-60
2022/08/03 05:27:21;;;;;;;6.87;2.40;;;;;;;23.38;49.97;100547.50;5150497;27;20653;-59
2022/08/03 05:29:51;;;;;;;5.87;2.57;;;;;;;23.41;50.06;100536.19;5150927;27;20488;-59
2022/08/03 05:32:19;;;;;;;8.57;2.97;;;;;;;23.48;50.03;100536.94;5149585;27;20215;-61
2022/08/03 05:34:47;;;;;;;6.47;2.70;;;;;;;23.51;49.50;100541.09;5152054;27;20677;-60
2022/08/03 05:37:15;;;;;;;5.70;2.43;;;;;;;23.55;49.75;100540.41;5151184;27;20291;-60
2022/08/03 05:39:44;;;;;;;7.20;2.93;;;;;;;23.58;49.73;100545.34;5150583;27;20207;-60
2022/08/03 05:42:11;;;;;;;4.60;2.70;;;;;;;23.60;49.72;100556.78;5152406;27;20200;-59
2022/08/03 05:44:41;;;;;;;3.42;2.00;;;;;;;23.63;49.98;100545.50;5148604;27;20324;-59
2022/08/03 05:47:09;;;;;;;6.23;2.37;;;;;;;23.71;49.41;100547.03;5150170;27;20265;-59
2022/08/03 05:49:37;;;;;;;5.57;2.57;;;;;;;23.77;48.92;100550.69;5149630;27;20213;-59
2022/08/03 05:52:05;;;;;;;10.90;2.30;;;;;;;23.81;48.36;100549.19;5149327;27;20220;-59
2022/08/03 05:54:46;;;;;;;4.07;2.80;;;;;;;23.84;48.21;100545.97;5151744;27;20200;-59
2022/08/03 05:57:24;;;;;;;4.30;2.50;;;;;;;23.87;48.33;100545.53;5150713;27;20216;-59
2022/08/03 05:59:52;;;;;;;8.95;2.72;;;;;;;23.87;48.16;100553.66;5150018;27;20209;-59
2022/08/03 06:02:25;;;;;;;6.80;2.57;;;;;;;23.90;48.25;100545.06;5151803;27;20220;-59
2022/08/03 06:04:52;;;;;;;9.63;3.45;;;;;;;23.97;47.60;100545.78;5150329;27;20201;-59
2022/08/03 06:07:20;;;;;;;7.63;3.15;;;;;;;24.02;47.75;100551.31;5147786;27;20215;-59
2022/08/03 06:09:49;;;;;;;8.35;3.00;;;;;;;24.08;47.94;100546.84;5151206;27;20206;-60
2022/08/03 06:12:39;;;;;;;7.50;2.83;;;;;;;24.14;48.15;100546.72;5150794;27;20227;-60
2022/08/03 06:15:08;;;;;;;3.50;2.45;;;;;;;24.24;48.00;100546.19;5152540;27;20204;-60
2022/08/03 06:17:45;;;;;;;5.90;2.70;;;;;;;24.30;47.91;100543.34;5148696;27;20207;-60
2022/08/03 06:20:14;;;;;;;9.00;2.50;;;;;;;24.32;47.98;100549.34;5145711;27;20203;-60
2022/08/03 06:22:41;;;;;;;7.10;2.80;;;;;;;24.37;47.85;100549.47;5150934;27;20197;-59
2022/08/03 06:25:19;;;;;;;8.27;4.00;;;;;;;24.44;47.95;100546.66;5154685;27;20249;-60
2022/08/03 06:27:48;;;;;;;5.93;3.25;;;;;;;24.51;48.19;100546.50;5153319;27;20212;-60
2022/08/03 06:30:17;;;;;;;6.45;2.75;;;;;;;24.54;47.80;100546.84;5154399;27;20670;-60
2022/08/03 06:32:48;;;;;;;7.28;3.45;;;;;;;24.58;47.44;100547.22;5153631;27;20207;-60
2022/08/03 06:35:19;;;;;;;8.07;3.00;;;;;;;24.61;47.20;100553.00;5153143;27;20262;-59
2022/08/03 06:37:48;;;;;;;11.95;3.40;;;;;;;24.67;47.34;100548.50;5155047;27;20679;-60
2022/08/03 06:40:17;;;;;;;6.55;2.92;;;;;;;24.71;47.12;100546.97;5152049;27;20523;-59
2022/08/03 06:42:52;;;;;;;7.95;3.20;;;;;;;24.71;46.94;100550.50;5153845;27;20202;-60
2022/08/03 06:45:20;;;;;;;7.18;3.00;;;;;;;24.74;46.88;100550.00;5153986;27;20212;-59
2022/08/03 06:47:47;;;;;;;6.82;2.70;;;;;;;24.80;47.12;100556.38;5154335;27;20214;-60
2022/08/03 06:50:19;;;;;;;6.78;3.08;;;;;;;24.87;47.40;100548.94;5159599;27;20215;-60
2022/08/03 06:52:52;;;;;;;10.35;3.03;;;;;;;24.88;47.19;100547.88;5152406;27;20196;-61
2022/08/03 06:55:20;;;;;;;8.65;3.00;;;;;;;24.93;47.31;100550.69;5154573;27;20211;-59
2022/08/03 06:57:48;;;;;;;11.02;3.33;;;;;;;24.97;46.50;100543.75;5155424;27;20200;-59
2022/08/03 07:00:18;;;;;;;7.40;3.25;;;;;;;25.01;46.09;100553.03;5158329;27;20216;-59
2022/08/03 07:02:46;;;;;;;11.43;2.95;;;;;;;25.08;46.71;100558.31;5150427;27;20240;-61
2022/08/03 07:05:15;;;;;;;6.70;3.15;;;;;;;25.14;46.41;100561.97;5151366;27;20226;-59
2022/08/03 07:07:43;;;;;;;8.20;3.25;;;;;;;25.18;46.21;100557.69;5150988;27;20204;-59
2022/08/03 07:10:11;;;;;;;8.93;3.13;;;;;;;25.24;46.43;100562.16;5155778;27;20201;-59
2022/08/03 07:12:39;;;;;;;10.88;3.38;;;;;;;25.30;46.65;100561.19;5156815;27;20220;-60
2022/08/03 07:15:25;;;;;;;12.00;3.03;;;;;;;25.36;46.24;100554.78;5154566;27;20249;-59
2022/08/03 07:18:12;;;;;;;9.73;3.08;;;;;;;25.44;45.81;100559.81;5153838;27;20665;-60
2022/08/03 07:20:41;;;;;;;10.80;3.30;;;;;;;25.52;45.98;100562.13;5151863;27;20211;-59
2022/08/03 07:23:09;;;;;;;9.80;3.30;;;;;;;25.53;45.78;100555.66;5153749;27;20212;-59
2022/08/03 07:25:45;;;;;;;8.32;2.97;;;;;;;25.61;45.42;100568.84;5150598;27;20291;-61
2022/08/03 07:28:13;;;;;;;11.45;3.92;;;;;;;25.67;45.81;100562.47;5153185;27;20299;-60
2022/08/03 07:30:42;;;;;;;10.15;3.67;;;;;;;25.75;45.21;100555.81;5155074;27;20574;-60
2022/08/03 07:33:10;;;;;;;10.95;3.20;;;;;;;25.80;45.23;100564.03;5153811;27;20198;-59
2022/08/03 07:35:38;;;;;;;9.80;3.67;;;;;;;25.86;45.08;100563.84;5152766;27;20303;-59
2022/08/03 07:38:05;;;;;;;12.13;3.63;;;;;;;25.93;45.06;100566.44;5153639;27;20211;-60
2022/08/03 07:40:33;;;;;;;11.65;3.38;;;;;;;26.01;44.88;100559.75;5151395;27;20199;-60
2022/08/03 07:43:02;;;;;;;6.22;3.40;;;;;;;26.06;45.29;100554.38;5153333;27;20221;-60
2022/08/03 07:45:30;;;;;;;10.82;3.83;;;;;;;26.12;44.43;100558.84;5154424;27;20661;-60
2022/08/03 07:47:59;;;;;;;11.05;3.97;;;;;;;26.20;44.19;100561.16;5152152;27;20649;-59
2022/08/03 07:50:27;;;;;;;10.30;3.20;;;;;;;26.29;44.40;100564.31;5153294;27;20205;-59
2022/08/03 07:52:56;;;;;;;15.48;3.50;;;;;;;26.49;43.60;100553.69;5147993;27;20758;-60
2022/08/03 07:55:26;;;;;;;13.13;3.90;;;;;;;26.52;43.27;100554.03;5153184;27;20239;-61
2022/08/03 07:58:06;;;;;;;14.45;3.85;;;;;;;26.60;42.88;100555.50;5152080;27;20295;-60
2022/08/03 08:00:34;;;;;;;10.88;3.63;;;;;;;26.74;42.80;100555.97;5152188;27;20565;-60
2022/08/03 08:03:03;;;;;;;12.73;3.85;;;;;;;26.84;42.56;100547.91;5152804;27;20239;-60
2022/08/03 08:05:32;;;;;;;7.65;3.40;;;;;;;26.89;42.52;100553.44;5151966;27;20665;-60
2022/08/03 08:08:00;;;;;;;8.57;3.47;;;;;;;26.98;42.18;100546.50;5149497;27;20211;-60
2022/08/03 08:10:28;;;;;;;13.23;3.22;;;;;;;27.00;42.33;100547.06;5157156;27;20262;-60
2022/08/03 08:12:59;;;;;;;8.90;3.03;;;;;;;27.12;42.69;100552.34;5153724;27;20216;-60
2022/08/03 08:15:27;;;;;;;10.32;3.58;;;;;;;27.23;42.22;100544.06;5153903;27;20215;-60
2022/08/03 08:17:56;;;;;;;10.45;3.38;;;;;;;27.31;41.80;100543.59;5155484;27;20204;-60
2022/08/03 08:20:27;;;;;;;7.35;3.00;;;;;;;27.38;41.50;100546.09;5151210;27;20218;-60
2022/08/03 08:22:59;;;;;;;9.40;3.33;;;;;;;27.46;41.37;100542.91;5153510;27;20303;-61
2022/08/03 08:25:40;;;;;;;6.50;2.78;;;;;;;27.57;41.59;100541.16;5150085;27;20307;-60
2022/08/03 08:28:17;;;;;;;7.68;2.90;;;;;;;27.67;41.06;100547.53;5150183;27;20506;-59
2022/08/03 08:30:59;;;;;;;6.88;2.60;;;;;;;27.71;41.13;100539.63;5148963;27;20602;-60
2022/08/03 08:33:27;;;;;;;9.07;4.38;;;;;;;27.85;41.06;100546.31;5152349;27;20215;-60
2022/08/03 08:36:16;;;;;;;9.40;3.67;;;;;;;27.97;40.92;100538.75;5151316;27;20207;-60
2022/08/03 08:38:44;;;;;;;7.97;4.55;;;;;;;28.01;39.95;100539.88;5147134;27;20240;-60
2022/08/03 08:41:13;;;;;;;10.55;3.90;;;;;;;28.05;39.78;100541.03;5151468;27;20226;-60
2022/08/03 08:43:42;;;;;;;8.80;3.58;;;;;;;28.12;39.55;100539.97;5150788;27;20441;-60
2022/08/03 08:46:12;;;;;;;7.05;3.83;;;;;;;28.23;39.20;100542.53;5150397;27;20238;-60
2022/08/03 08:49:00;;;;;;;8.10;2.83;;;;;;;28.36;39.00;100530.34;5149066;27;20292;-63
2022/08/03 08:51:36;;;;;;;7.07;3.42;;;;;;;28.46;38.95;100533.13;5150933;27;20355;-60
2022/08/03 08:54:29;;;;;;;9.18;3.28;;;;;;;28.55;38.66;100528.81;5150378;27;20212;-60
2022/08/03 08:57:01;;;;;;;6.70;3.60;;;;;;;28.63;38.27;100525.56;5150312;27;20315;-60
2022/08/03 08:59:32;;;;;;;6.53;2.72;;;;;;;28.80;38.28;100528.13;5151699;27;20227;-60
2022/08/03 09:02:16;;;;;;;6.90;3.20;;;;;;;28.94;38.27;100523.00;5151249;27;20216;-58
2022/08/03 09:04:47;;;;;;;7.28;3.28;;;;;;;29.05;37.95;100521.94;5152743;27;20248;-60
2022/08/03 09:07:17;;;;;;;5.68;2.72;;;;;;;29.22;37.58;100527.16;5147604;27;20469;-59
2022/08/03 09:09:47;;;;;;;8.65;3.70;;;;;;;29.26;38.05;100531.81;5150616;27;20192;-59
2022/08/03 09:12:38;;;;;;;8.05;3.42;;;;;;;29.36;38.19;100525.59;5150663;27;20212;-59
2022/08/03 09:15:21;;;;;;;9.05;3.72;;;;;;;29.49;38.06;100528.59;5149189;27;20708;-59
2022/08/03 09:17:50;;;;;;;32.90;6.30;;;;;;;29.58;37.50;100531.63;5149052;27;21623;-60
2022/08/03 09:20:19;;;;;;;8.93;3.95;;;;;;;29.71;36.66;100527.53;5150225;27;20223;-59
2022/08/03 09:23:09;;;;;;;5.53;3.63;;;;;;;29.82;36.24;100527.25;5152698;27;20583;-59
2022/08/03 09:26:00;;;;;;;5.60;3.20;;;;;;;29.92;36.70;100526.41;5149610;27;20204;-59
2022/08/03 09:28:34;;;;;;;9.68;2.90;;;;;;;30.06;36.22;100522.06;5150429;27;20232;-59
2022/08/03 09:31:29;;;;;;;5.93;2.58;;;;;;;30.15;36.57;100517.69;5148250;27;20224;-60
2022/08/03 09:33:59;;;;;;;9.13;3.33;;;;;;;30.27;36.68;100520.09;5146641;27;20214;-60
2022/08/03 09:36:34;;;;;;;14.63;3.53;;;;;;;30.37;36.55;100522.00;5153768;27;20197;-60
2022/08/03 09:39:05;;;;;;;8.20;2.88;;;;;;;30.55;35.17;100518.69;5148514;27;20283;-59
2022/08/03 09:41:33;;;;;;;4.72;2.97;;;;;;;30.67;34.09;100514.56;5150244;27;20231;-59
2022/08/03 09:44:00;;;;;;;7.30;2.60;;;;;;;30.78;33.62;100518.06;5154345;27;20227;-60
2022/08/03 09:46:30;;;;;;;4.95;2.50;;;;;;;30.78;33.96;100512.59;5150791;27;20240;-60
2022/08/03 09:49:11;;;;;;;10.63;3.15;;;;;;;30.75;33.14;100513.16;5152175;27;20209;-60
2022/08/03 09:51:39;;;;;;;5.40;1.90;;;;;;;30.90;33.52;100507.59;5148488;27;20266;-60
2022/08/03 09:54:30;;;;;;;4.05;2.03;;;;;;;31.05;33.30;100502.03;5149840;27;20232;-60
2022/08/03 09:56:58;;;;;;;3.33;2.38;;;;;;;31.30;32.31;100501.09;5153589;27;20216;-59
2022/08/03 09:59:28;;;;;;;6.68;2.22;;;;;;;31.33;32.70;100507.91;5150667;27;20239;-60
2022/08/03 10:01:58;;;;;;;4.55;1.98;;;;;;;31.45;31.80;100502.91;5151263;27;20207;-60
2022/08/03 10:04:26;;;;;;;2.67;1.83;;;;;;;31.50;31.71;100504.75;5154223;27;20225;-60
2022/08/03 10:07:06;;;;;;;3.08;1.88;;;;;;;31.58;32.29;100504.97;5150445;27;20212;-58
2022/08/03 10:09:35;;;;;;;5.63;3.33;;;;;;;31.69;32.26;100503.00;5153634;27;20519;-59
2022/08/03 10:12:10;;;;;;;3.13;2.10;;;;;;;31.99;31.86;100502.72;5153448;27;20926;-62
2022/08/03 10:14:40;;;;;;;6.70;2.63;;;;;;;32.08;31.73;100494.69;5152752;27;20733;-62
2022/08/03 10:17:09;;;;;;;5.55;2.50;;;;;;;32.24;32.07;100500.84;5150707;27;20276;-62
2022/08/03 10:19:38;;;;;;;4.20;2.30;;;;;;;32.31;31.03;100493.91;5147983;27;20208;-61
2022/08/03 10:22:13;;;;;;;4.75;3.65;;;;;;;32.33;31.73;100488.13;5151305;27;20200;-58
2022/08/03 10:24:49;;;;;;;4.43;2.00;;;;;;;32.38;31.37;100486.13;5155079;27;20298;-59
2022/08/03 10:27:19;;;;;;;3.20;1.90;;;;;;;32.44;31.18;100484.19;5148424;27;20218;-60
2022/08/03 10:29:53;;;;;;;10.10;2.58;;;;;;;32.54;31.00;100483.22;5150924;27;20204;-62
2022/08/03 10:32:26;;;;;;;3.60;1.90;;;;;;;32.65;30.49;100473.75;5152812;27;20208;-59
2022/08/03 10:35:02;;;;;;;5.80;2.55;;;;;;;32.82;30.77;100479.56;5151785;27;20624;-58
2022/08/03 10:37:55;;;;;;;3.45;2.03;;;;;;;32.89;30.26;100474.56;5152894;27;20227;-61
2022/08/03 10:40:27;;;;;;;5.53;2.33;;;;;;;32.95;30.92;100476.09;5151199;27;20234;-61
2022/08/03 10:43:19;;;;;;;4.88;2.33;;;;;;;32.92;29.92;100467.63;5150363;27;20251;-61
2022/08/03 10:45:47;;;;;;;7.53;2.22;;;;;;;33.03;30.15;100464.47;5152869;27;20708;-61
2022/08/03 10:48:16;;;;;;;4.68;2.40;;;;;;;33.23;30.04;100464.19;5151397;27;20840;-61
2022/08/03 10:50:44;;;;;;;6.00;2.63;;;;;;;33.28;29.59;100456.97;5150330;27;20201;-61
2022/08/03 10:53:12;;;;;;;5.47;2.50;;;;;;;33.34;29.74;100458.50;5149793;27;20304;-61
2022/08/03 10:58:50;;;;;;;3.70;1.85;;;;;;;33.45;30.16;100449.81;5149475;27;20717;-61
2022/08/03 11:01:52;;;;;;;8.25;2.63;;;;;;;33.72;29.24;100442.75;5148221;27;20251;-63
2022/08/03 11:04:29;;;;;;;5.90;2.30;;;;;;;33.78;29.90;100447.88;5152377;27;20273;-61
2022/08/03 11:07:20;;;;;;;5.00;2.30;;;;;;;34.06;28.67;100436.91;5149925;27;20201;-61
2022/08/03 11:09:50;;;;;;;5.07;2.38;;;;;;;34.02;28.80;100431.22;5153392;27;20411;-60
2022/08/03 11:12:24;;;;;;;5.32;2.55;;;;;;;34.11;29.60;100434.06;5152117;27;20221;-60
2022/08/03 11:15:00;;;;;;;4.00;2.78;;;;;;;34.12;29.17;100430.19;5152625;27;20707;-60
2022/08/03 11:17:28;;;;;;;4.30;2.53;;;;;;;34.11;29.41;100428.56;5151678;27;20481;-62
2022/08/03 11:19:56;;;;;;;6.53;2.83;;;;;;;34.16;29.45;100433.94;5150690;27;20686;-61
2022/08/03 11:22:27;;;;;;;6.10;2.45;;;;;;;34.23;29.60;100426.09;5152375;27;20659;-60
2022/08/03 11:25:01;;;;;;;5.30;2.60;;;;;;;34.26;29.46;100431.03;5152781;27;20315;-60
2022/08/03 11:27:32;;;;;;;5.53;2.55;;;;;;;34.38;28.98;100428.59;5156942;27;20571;-60
2022/08/03 11:30:03;;;;;;;7.45;3.20;;;;;;;34.59;28.68;100423.44;5149992;27;20201;-60
2022/08/03 11:32:58;;;;;;;8.90;3.17;;;;;;;34.76;28.34;100422.81;5151869;27;20197;-60
2022/08/03 11:35:28;;;;;;;11.10;3.17;;;;;;;35.08;27.45;100419.88;5101331;27;20215;-59
2022/08/03 11:38:08;;;;;;;7.60;3.13;;;;;;;35.10;28.04;100423.09;5148831;27;20200;-60
2022/08/03 11:40:39;;;;;;;5.88;3.08;;;;;;;35.18;27.66;100418.81;5153059;27;20211;-60
2022/08/03 11:43:10;;;;;;;6.53;3.05;;;;;;;35.23;27.35;100411.25;5153678;27;20235;-60
2022/08/03 11:45:38;;;;;;;5.35;2.60;;;;;;;35.13;28.08;100416.16;5152798;27;20242;-60
2022/08/03 11:48:16;;;;;;;5.15;3.08;;;;;;;35.38;27.34;100396.25;5151368;27;20200;-60
2022/08/03 11:50:45;;;;;;;3.95;3.00;;;;;;;35.19;27.41;100404.69;5150995;27;20219;-60
2022/08/03 11:53:18;;;;;;;13.15;3.33;;;;;;;35.17;27.72;100395.94;5155424;27;20201;-59
2022/08/03 11:55:48;;;;;;;6.13;3.10;;;;;;;35.13;27.88;100411.47;5153537;27;20672;-60
2022/08/03 11:58:19;;;;;;;4.25;2.90;;;;;;;34.84;27.83;100402.78;5151527;27;20311;-60